Time;durP1;ratioP1;P1;durP2;ratioP2;P2;SDS_P1;SDS_P2;PMS_P1;PMS_P2;Temp;Humidity;BMP_temperature;BMP_pressure;BME280_temperature;BME280_humidity;BME280_pressure;Samples;Min_cycle;Max_cycle;Signal;HPM_P1;HPM_P2
2022/02/08 00:00:49;;;;;;;;;;;12.50;54.70;;;;;;5144029;27;19971;-71
2022/02/08 00:03:16;;;;;;;;;;;12.50;55.10;;;;;;5162453;27;19907;-70
2022/02/08 00:05:44;;;;;;;;;;;12.50;55.10;;;;;;5162388;27;19930;-69
2022/02/08 00:08:10;;;;;;;;;;;12.50;55.20;;;;;;5162443;27;19966;-71
2022/02/08 00:10:36;;;;;;;;;;;12.50;55.30;;;;;;5162353;27;19904;-70
2022/02/08 00:13:02;;;;;;;;;;;12.60;55.30;;;;;;5162469;27;19914;-71
2022/02/08 00:15:28;;;;;;;;;;;12.60;55.20;;;;;;5162349;27;19948;-70
2022/02/08 00:17:53;;;;;;;;;;;12.60;55.30;;;;;;5162236;27;20364;-70
2022/02/08 00:20:19;;;;;;;;;;;12.60;55.20;;;;;;5162241;27;19942;-70
2022/02/08 00:22:44;;;;;;;;;;;12.60;55.10;;;;;;5162162;27;20151;-71
2022/02/08 00:25:10;;;;;;;;;;;12.50;55.00;;;;;;5162136;27;19910;-69
2022/02/08 00:27:36;;;;;;;;;;;12.50;55.00;;;;;;5162081;27;19903;-71
2022/02/08 00:30:02;;;;;;;;;;;12.50;54.90;;;;;;5162188;27;19939;-69
2022/02/08 00:32:28;;;;;;;;;;;12.50;55.30;;;;;;5162364;27;19911;-70
2022/02/08 00:34:53;;;;;;;;;;;12.50;55.20;;;;;;5144602;27;19918;-70
2022/02/08 00:37:19;;;;;;;;;;;12.50;55.40;;;;;;5162627;27;19934;-70
2022/02/08 00:39:45;;;;;;;;;;;12.50;55.20;;;;;;5161995;27;19911;-70
2022/02/08 00:42:12;;;;;;;;;;;12.50;54.80;;;;;;5161874;27;19944;-69
2022/02/08 00:44:49;;;;;;;;;;;12.50;55.10;;;;;;5162031;27;19939;-70
2022/02/08 00:49:47;;;;;;;;;;;12.50;55.00;;;;;;5162268;27;19915;-69
2022/02/08 00:52:16;;;;;;;;;;;12.50;55.30;;;;;;5161999;27;19911;-69
2022/02/08 00:54:45;;;;;;;;;;;12.50;55.20;;;;;;5162156;27;19903;-69
2022/02/08 00:57:11;;;;;;;;;;;12.50;55.30;;;;;;5161955;27;19911;-69
2022/02/08 00:59:37;;;;;;;;;;;12.50;55.20;;;;;;5164672;27;19911;-69
2022/02/08 01:02:04;;;;;;;;;;;12.50;55.00;;;;;;5166141;27;19919;-70
2022/02/08 01:04:29;;;;;;;;;;;12.50;54.90;;;;;;5165938;27;19921;-69
2022/02/08 01:06:56;;;;;;;;;;;12.40;54.50;;;;;;5166153;27;20217;-69
2022/02/08 01:09:34;;;;;;;;;;;12.30;54.80;;;;;;5166157;27;19939;-70
2022/02/08 01:12:00;;;;;;;;;;;12.30;55.10;;;;;;5166175;27;19903;-70
2022/02/08 01:14:26;;;;;;;;;;;12.20;55.10;;;;;;5165986;27;19903;-70
2022/02/08 01:16:52;;;;;;;;;;;12.20;55.20;;;;;;5165960;27;20234;-70
2022/02/08 01:19:21;;;;;;;;;;;12.30;55.20;;;;;;5165820;27;19978;-70
2022/02/08 01:21:46;;;;;;;;;;;12.30;55.30;;;;;;5165718;27;20211;-70
2022/02/08 01:24:12;;;;;;;;;;;12.40;55.60;;;;;;5165747;27;19980;-70
2022/02/08 01:26:50;;;;;;;;;;;12.40;55.50;;;;;;5165645;27;19918;-70
2022/02/08 01:29:34;;;;;;;;;;;12.50;56.00;;;;;;5165593;27;19918;-70
2022/02/08 01:32:12;;;;;;;;;;;12.50;55.30;;;;;;5165502;27;19952;-70
2022/02/08 01:34:52;;;;;;;;;;;12.50;55.10;;;;;;5165440;27;19911;-69
2022/02/08 01:42:49;;;;;;;;;;;12.50;54.80;;;;;;5165169;27;19973;-69
2022/02/08 01:48:12;;;;;;;;;;;12.30;55.40;;;;;;5165190;27;19918;-69
2022/02/08 01:50:38;;;;;;;;;;;12.30;55.10;;;;;;5165050;27;19911;-69
2022/02/08 01:53:05;;;;;;;;;;;12.20;55.20;;;;;;5165040;27;20480;-69
2022/02/08 01:55:32;;;;;;;;;;;12.10;55.30;;;;;;5164842;27;19930;-70
2022/02/08 01:57:58;;;;;;;;;;;12.10;55.30;;;;;;5164476;27;19918;-71
2022/02/08 02:00:23;;;;;;;;;;;12.20;55.40;;;;;;5164858;27;19911;-69
2022/02/08 02:02:49;;;;;;;;;;;12.30;55.70;;;;;;5164631;27;19915;-70
2022/02/08 02:05:15;;;;;;;;;;;12.40;55.70;;;;;;5164404;27;20218;-70
2022/02/08 02:07:47;;;;;;;;;;;12.40;55.50;;;;;;5164646;27;20188;-70
2022/02/08 02:10:14;;;;;;;;;;;12.50;55.40;;;;;;5164393;27;19977;-70
2022/02/08 02:13:42;;;;;;;;;;;12.50;54.80;;;;;;5164558;27;19974;-70
2022/02/08 02:15:55;;;;;;;;;;;12.40;54.70;;;;;;5156241;27;19974;-70
2022/02/08 02:18:21;;;;;;;;;;;12.30;55.10;;;;;;5164319;27;19903;-71
2022/02/08 02:20:46;;;;;;;;;;;12.30;55.10;;;;;;5164360;27;19911;-70
2022/02/08 02:23:12;;;;;;;;;;;12.40;54.90;;;;;;5164310;27;20227;-68
2022/02/08 02:25:38;;;;;;;;;;;12.30;54.70;;;;;;5164202;27;19918;-69
2022/02/08 02:28:04;;;;;;;;;;;12.30;54.90;;;;;;5164304;27;19911;-71
2022/02/08 02:30:34;;;;;;;;;;;12.20;55.00;;;;;;5164167;27;20323;-70
2022/02/08 02:33:00;;;;;;;;;;;12.20;55.00;;;;;;5164135;27;19907;-70
2022/02/08 02:35:27;;;;;;;;;;;12.20;55.20;;;;;;5164104;27;20088;-71
2022/02/08 02:37:57;;;;;;;;;;;12.10;55.20;;;;;;5164024;27;20016;-71
2022/02/08 02:40:24;;;;;;;;;;;12.20;55.30;;;;;;5164047;27;19934;-71
2022/02/08 02:42:53;;;;;;;;;;;12.20;55.80;;;;;;5163869;27;19921;-69
2022/02/08 02:45:22;;;;;;;;;;;12.30;55.60;;;;;;5163921;27;19907;-69
2022/02/08 02:47:51;;;;;;;;;;;12.40;55.30;;;;;;5163838;27;20219;-70
2022/02/08 02:50:16;;;;;;;;;;;12.30;54.70;;;;;;5163768;27;20209;-69
2022/02/08 02:52:42;;;;;;;;;;;12.30;54.80;;;;;;5163759;27;19911;-69
2022/02/08 02:55:07;;;;;;;;;;;12.20;54.90;;;;;;5145160;27;19918;-69
2022/02/08 02:57:33;;;;;;;;;;;12.20;55.10;;;;;;5163700;27;19939;-70
2022/02/08 03:00:06;;;;;;;;;;;12.20;55.10;;;;;;5163651;27;19935;-70
2022/02/08 03:02:40;;;;;;;;;;;12.20;55.10;;;;;;5163507;27;20361;-69
2022/02/08 03:18:39;;;;;;;;;;;12.10;55.30;;;;;;5163373;27;19971;-70
2022/02/08 03:21:06;;;;;;;;;;;12.10;55.30;;;;;;5162466;27;19903;-70
2022/02/08 03:23:31;;;;;;;;;;;12.20;55.80;;;;;;5163090;27;19918;-70
2022/02/08 03:25:57;;;;;;;;;;;12.30;55.20;;;;;;5163055;27;20321;-70
2022/02/08 03:28:23;;;;;;;;;;;12.20;54.80;;;;;;5163079;27;19911;-70
2022/02/08 03:30:49;;;;;;;;;;;12.20;54.80;;;;;;5162948;27;19962;-70
2022/02/08 03:33:17;;;;;;;;;;;12.20;55.00;;;;;;5162934;27;19930;-69
2022/02/08 03:35:43;;;;;;;;;;;12.20;55.00;;;;;;5162877;27;19986;-69
2022/02/08 03:38:11;;;;;;;;;;;12.10;55.20;;;;;;5162796;27;20199;-69
2022/02/08 03:40:40;;;;;;;;;;;12.10;55.20;;;;;;5162768;27;19926;-69
2022/02/08 03:45:53;;;;;;;;;;;12.10;55.20;;;;;;5162696;27;19941;-70
2022/02/08 03:48:21;;;;;;;;;;;12.10;55.20;;;;;;5162719;27;19917;-70
2022/02/08 03:50:52;;;;;;;;;;;12.10;55.20;;;;;;5162594;27;20318;-70
2022/02/08 03:53:18;;;;;;;;;;;12.10;55.20;;;;;;5162506;27;19912;-70
2022/02/08 03:55:45;;;;;;;;;;;12.10;55.20;;;;;;5162525;27;19919;-70
2022/02/08 03:58:11;;;;;;;;;;;12.10;55.30;;;;;;5162317;27;19944;-70
2022/02/08 04:00:56;;;;;;;;;;;12.00;55.30;;;;;;5162438;27;19919;-70
2022/02/08 04:03:25;;;;;;;;;;;12.00;55.40;;;;;;5162357;27;19915;-70
2022/02/08 04:05:53;;;;;;;;;;;12.00;55.30;;;;;;5162162;27;20007;-70
2022/02/08 04:08:19;;;;;;;;;;;12.10;55.20;;;;;;5162185;27;20207;-69
2022/02/08 04:10:45;;;;;;;;;;;12.10;55.20;;;;;;5162266;27;19903;-70
2022/02/08 04:13:20;;;;;;;;;;;12.10;55.10;;;;;;5162189;27;19910;-69
2022/02/08 04:40:08;;;;;;;;;;;12.00;55.40;;;;;;5162104;27;19910;-70
2022/02/08 04:42:42;;;;;;;;;;;11.90;55.40;;;;;;5161722;27;19954;-70
2022/02/08 04:50:09;;;;;;;;;;;12.00;55.40;;;;;;5161885;27;19912;-68
2022/02/08 04:52:35;;;;;;;;;;;12.00;55.30;;;;;;5161623;27;19943;-70
2022/02/08 04:57:52;;;;;;;;;;;12.10;55.20;;;;;;5161662;27;19982;-70
2022/02/08 05:00:34;;;;;;;;;;;12.00;55.10;;;;;;5161571;27;19960;-70
2022/02/08 05:45:59;;;;;;;;;;;11.90;55.30;;;;;;5163833;27;19910;-70
2022/02/08 05:48:30;;;;;;;;;;;11.90;55.40;;;;;;5164744;27;19915;-70
2022/02/08 05:51:15;;;;;;;;;;;11.90;55.70;;;;;;5164976;27;20183;-71
2022/02/08 05:53:45;;;;;;;;;;;11.80;55.50;;;;;;5164860;27;19903;-69
2022/02/08 05:56:13;;;;;;;;;;;11.90;55.60;;;;;;5164822;27;19903;-69
2022/02/08 05:58:41;;;;;;;;;;;11.90;55.60;;;;;;5164739;27;19918;-70
2022/02/08 06:01:07;;;;;;;;;;;11.90;55.60;;;;;;5164695;27;19945;-69
2022/02/08 06:03:33;;;;;;;;;;;11.90;55.60;;;;;;5164629;27;20211;-69
2022/02/08 06:05:58;;;;;;;;;;;11.80;55.50;;;;;;5164445;27;20211;-69
2022/02/08 06:08:24;;;;;;;;;;;11.90;55.60;;;;;;5164556;27;20239;-70
2022/02/08 06:10:54;;;;;;;;;;;11.90;55.60;;;;;;5164553;27;20358;-70
2022/02/08 06:13:21;;;;;;;;;;;11.90;55.60;;;;;;5145921;27;19911;-68
2022/02/08 06:15:49;;;;;;;;;;;11.90;55.60;;;;;;5164376;27;19914;-70
2022/02/08 06:18:15;;;;;;;;;;;11.90;55.50;;;;;;5164270;27;19918;-69
2022/02/08 06:20:40;;;;;;;;;;;11.90;55.40;;;;;;5164279;27;19903;-69
2022/02/08 06:23:06;;;;;;;;;;;11.90;55.40;;;;;;5164182;27;19918;-70
2022/02/08 06:25:32;;;;;;;;;;;11.90;55.30;;;;;;5164227;27;20207;-69
2022/02/08 06:27:58;;;;;;;;;;;11.90;55.40;;;;;;5164167;27;19911;-69
2022/02/08 06:30:24;;;;;;;;;;;11.90;55.40;;;;;;5145530;27;19911;-68
2022/02/08 06:32:55;;;;;;;;;;;11.90;55.40;;;;;;5164122;27;19911;-68
2022/02/08 06:35:24;;;;;;;;;;;11.90;55.50;;;;;;5145487;27;19906;-69
2022/02/08 06:37:50;;;;;;;;;;;11.90;55.50;;;;;;5164048;27;19903;-70
2022/02/08 06:40:16;;;;;;;;;;;11.90;55.40;;;;;;5163931;27;20243;-70
2022/02/08 06:42:43;;;;;;;;;;;11.90;56.00;;;;;;5163861;27;19918;-70
2022/02/08 06:45:09;;;;;;;;;;;11.90;55.30;;;;;;5163794;27;19911;-70
2022/02/08 06:47:38;;;;;;;;;;;12.00;55.30;;;;;;5163830;27;19903;-70
2022/02/08 06:50:05;;;;;;;;;;;12.00;55.40;;;;;;5163755;27;19918;-70
2022/02/08 06:52:30;;;;;;;;;;;12.00;55.10;;;;;;5163599;27;19903;-69
2022/02/08 06:55:14;;;;;;;;;;;12.00;55.00;;;;;;5163632;27;19931;-70
2022/02/08 06:57:52;;;;;;;;;;;12.00;55.10;;;;;;5162640;27;19910;-70
2022/02/08 07:00:30;;;;;;;;;;;11.90;55.30;;;;;;5163599;27;19943;-69
2022/02/08 07:02:56;;;;;;;;;;;11.90;55.30;;;;;;5163382;27;19980;-70
2022/02/08 07:05:21;;;;;;;;;;;11.90;55.30;;;;;;5163246;27;19923;-69
2022/02/08 07:08:12;;;;;;;;;;;11.90;55.30;;;;;;5144777;27;20454;-70
2022/02/08 07:10:39;;;;;;;;;;;11.90;55.20;;;;;;5144603;27;19918;-70
2022/02/08 07:13:07;;;;;;;;;;;11.90;55.30;;;;;;5163263;27;19914;-70
2022/02/08 07:15:32;;;;;;;;;;;11.90;55.30;;;;;;5163288;27;19987;-70
2022/02/08 07:17:59;;;;;;;;;;;12.00;55.30;;;;;;5163136;27;19911;-69
2022/02/08 07:20:24;;;;;;;;;;;12.00;55.20;;;;;;5163183;27;19911;-70
2022/02/08 07:22:50;;;;;;;;;;;12.10;55.00;;;;;;5162960;27;19907;-70
2022/02/08 07:25:16;;;;;;;;;;;12.10;55.10;;;;;;5162975;27;20140;-70
2022/02/08 07:27:41;;;;;;;;;;;12.10;55.20;;;;;;5144354;27;20148;-69
2022/02/08 07:30:11;;;;;;;;;;;12.20;55.30;;;;;;5162918;27;19918;-70
2022/02/08 07:32:39;;;;;;;;;;;12.20;54.80;;;;;;5162883;27;19911;-70
2022/02/08 07:37:53;;;;;;;;;;;12.10;54.80;;;;;;5163061;27;19918;-70
2022/02/08 07:42:57;;;;;;;;;;;12.30;55.10;;;;;;5162579;27;19915;-70
2022/02/08 07:45:23;;;;;;;;;;;12.30;54.90;;;;;;5162708;27;20195;-70
2022/02/08 07:47:49;;;;;;;;;;;12.30;54.90;;;;;;5162524;27;19918;-70
2022/02/08 07:50:15;;;;;;;;;;;12.40;54.80;;;;;;5162592;27;19930;-70
2022/02/08 07:52:43;;;;;;;;;;;12.40;54.70;;;;;;5162503;27;20007;-69
2022/02/08 07:55:09;;;;;;;;;;;12.40;55.30;;;;;;5162513;27;19982;-70
2022/02/08 07:57:35;;;;;;;;;;;12.40;54.70;;;;;;5162401;27;19903;-69
2022/02/08 08:00:00;;;;;;;;;;;12.40;54.60;;;;;;5162367;27;19903;-69
2022/02/08 08:02:26;;;;;;;;;;;12.40;54.50;;;;;;5162273;27;19942;-70
2022/02/08 08:04:51;;;;;;;;;;;12.40;54.60;;;;;;5162122;27;19989;-69
2022/02/08 08:07:17;;;;;;;;;;;12.40;54.60;;;;;;5162025;27;19903;-69
2022/02/08 08:09:43;;;;;;;;;;;12.40;55.20;;;;;;5162210;27;19911;-70
2022/02/08 08:12:12;;;;;;;;;;;12.40;54.60;;;;;;5162188;27;19911;-69
2022/02/08 08:14:37;;;;;;;;;;;12.40;54.70;;;;;;5143537;27;19914;-70
2022/02/08 08:19:40;;;;;;;;;;;12.40;54.80;;;;;;5162061;27;20103;-70
2022/02/08 08:22:07;;;;;;;;;;;12.40;54.80;;;;;;5161871;27;20211;-70
2022/02/08 08:24:33;;;;;;;;;;;12.40;54.50;;;;;;5161978;27;20003;-69
2022/02/08 08:26:59;;;;;;;;;;;12.40;54.60;;;;;;5161928;27;20211;-70
2022/02/08 08:29:24;;;;;;;;;;;12.50;54.70;;;;;;5161914;27;19947;-70
2022/02/08 08:31:50;;;;;;;;;;;12.40;54.70;;;;;;5161835;27;19903;-69
2022/02/08 08:34:16;;;;;;;;;;;12.40;54.70;;;;;;5161825;27;20084;-70
2022/02/08 08:36:43;;;;;;;;;;;12.40;54.70;;;;;;5161760;27;20200;-70
2022/02/08 08:39:10;;;;;;;;;;;12.40;54.70;;;;;;5161679;27;19912;-70
2022/02/08 08:41:46;;;;;;;;;;;12.40;54.80;;;;;;5161580;27;20205;-70
2022/02/08 08:49:36;;;;;;;;;;;12.40;54.60;;;;;;5161674;27;19959;-69
2022/02/08 08:52:02;;;;;;;;;;;12.40;54.50;;;;;;5143164;27;20118;-69
2022/02/08 08:54:27;;;;;;;;;;;12.40;54.70;;;;;;5161658;27;19911;-70
2022/02/08 08:56:53;;;;;;;;;;;12.40;54.80;;;;;;5161632;27;19911;-69
2022/02/08 08:59:20;;;;;;;;;;;12.40;54.70;;;;;;5161589;27;19922;-69
2022/02/08 09:01:48;;;;;;;;;;;12.40;54.70;;;;;;5161544;27;19903;-69
2022/02/08 09:04:15;;;;;;;;;;;12.40;54.70;;;;;;5161581;27;19980;-70
2022/02/08 09:06:40;;;;;;;;;;;12.40;54.80;;;;;;5161398;27;20102;-69
2022/02/08 09:09:12;;;;;;;;;;;12.40;54.70;;;;;;5161468;27;19942;-69
2022/02/08 09:14:15;;;;;;;;;;;12.50;54.80;;;;;;5161465;27;20190;-71
2022/02/08 09:21:47;;;;;;;;;;;12.50;55.30;;;;;;5165800;27;19912;-71
2022/02/08 09:24:35;;;;;;;;;;;12.50;54.70;;;;;;5165496;27;20291;-70
2022/02/08 09:29:48;;;;;;;;;;;12.50;54.60;;;;;;5165330;27;19948;-70
2022/02/08 09:32:17;;;;;;;;;;;12.50;54.60;;;;;;5165342;27;19911;-69
2022/02/08 09:34:43;;;;;;;;;;;12.50;54.50;;;;;;5165257;27;19903;-69
2022/02/08 09:37:10;;;;;;;;;;;12.50;54.70;;;;;;5165233;27;19911;-69
2022/02/08 09:39:36;;;;;;;;;;;12.50;54.70;;;;;;5165074;27;19919;-69
2022/02/08 09:42:02;;;;;;;;;;;12.50;54.80;;;;;;5165053;27;20257;-69
2022/02/08 09:44:30;;;;;;;;;;;12.50;54.80;;;;;;5165107;27;20258;-71
2022/02/08 09:46:57;;;;;;;;;;;12.40;54.60;;;;;;5165030;27;20130;-70
2022/02/08 09:49:23;;;;;;;;;;;12.50;54.60;;;;;;5164996;27;19911;-70
2022/02/08 09:51:51;;;;;;;;;;;12.50;54.80;;;;;;5164841;27;19912;-70
2022/02/08 09:54:19;;;;;;;;;;;12.50;54.70;;;;;;5164907;27;19911;-70
2022/02/08 09:56:46;;;;;;;;;;;12.50;54.80;;;;;;5146309;27;19911;-70
2022/02/08 09:59:11;;;;;;;;;;;12.50;54.70;;;;;;5164793;27;19968;-69
2022/02/08 10:01:40;;;;;;;;;;;12.50;54.80;;;;;;5146134;27;20290;-71
2022/02/08 10:04:05;;;;;;;;;;;12.50;54.60;;;;;;5164723;27;19907;-69
2022/02/08 10:06:31;;;;;;;;;;;12.50;54.70;;;;;;5164478;27;19929;-69
2022/02/08 10:09:01;;;;;;;;;;;12.50;54.80;;;;;;5164548;27;19918;-69
2022/02/08 10:11:39;;;;;;;;;;;12.50;54.80;;;;;;5164566;27;20148;-69
2022/02/08 10:14:39;;;;;;;;;;;12.50;54.90;;;;;;5164562;27;19910;-68
2022/02/08 10:20:46;;;;;;;;;;;12.50;54.70;;;;;;5164404;27;19952;-70
2022/02/08 10:22:49;;;;;;;;;;;12.50;54.70;;;;;;5163965;27;19915;-69
2022/02/08 10:25:30;;;;;;;;;;;12.50;54.60;;;;;;5164240;27;19946;-70
2022/02/08 10:28:11;;;;;;;;;;;12.50;54.80;;;;;;5164237;27;19903;-70
2022/02/08 10:38:56;;;;;;;;;;;12.50;54.80;;;;;;5164005;27;20002;-70
2022/02/08 10:41:22;;;;;;;;;;;12.50;54.90;;;;;;5163933;27;20211;-69
2022/02/08 10:43:59;;;;;;;;;;;12.50;54.80;;;;;;5163910;27;19994;-70
2022/02/08 10:46:25;;;;;;;;;;;12.50;55.00;;;;;;5163832;27;20122;-70
2022/02/08 10:49:00;;;;;;;;;;;12.50;55.00;;;;;;5145309;27;19940;-69
2022/02/08 10:51:25;;;;;;;;;;;12.50;54.80;;;;;;5163864;27;19943;-69
2022/02/08 10:53:57;;;;;;;;;;;12.50;54.90;;;;;;5163716;27;19911;-69
2022/02/08 10:56:27;;;;;;;;;;;12.50;54.90;;;;;;5163800;27;20234;-69
2022/02/08 10:59:06;;;;;;;;;;;12.50;54.90;;;;;;5163728;27;19947;-70
2022/02/08 11:01:35;;;;;;;;;;;12.50;54.80;;;;;;5163642;27;19918;-70
2022/02/08 11:04:11;;;;;;;;;;;12.50;54.80;;;;;;5163438;27;19907;-70
2022/02/08 11:06:49;;;;;;;;;;;12.50;54.80;;;;;;5141370;27;19945;-70
2022/02/08 11:09:41;;;;;;;;;;;12.50;54.60;;;;;;5142727;27;19911;-70
2022/02/08 11:22:58;;;;;;;;;;;12.50;54.80;;;;;;5142345;27;20316;-69
2022/02/08 11:27:59;;;;;;;;;;;12.50;54.80;;;;;;5142220;27;20112;-70
2022/02/08 11:30:38;;;;;;;;;;;12.50;54.90;;;;;;5142330;27;19946;-70
2022/02/08 11:33:25;;;;;;;;;;;12.50;54.60;;;;;;5142285;27;19973;-70
2022/02/08 11:46:58;;;;;;;;;;;12.60;54.40;;;;;;5142173;27;19912;-70
2022/02/08 11:49:42;;;;;;;;;;;12.60;54.60;;;;;;5141887;27;19911;-70
2022/02/08 12:00:12;;;;;;;;;;;12.70;54.80;;;;;;5141935;27;19918;-70
2022/02/08 12:02:51;;;;;;;;;;;12.70;54.80;;;;;;5141519;27;19956;-71
2022/02/08 12:07:50;;;;;;;;;;;12.70;55.40;;;;;;5141787;27;19973;-70
2022/02/08 13:01:32;;;;;;;;;;;12.90;54.90;;;;;;5145798;27;19997;-69
2022/02/08 13:04:13;;;;;;;;;;;12.90;54.80;;;;;;5145131;27;19948;-69
2022/02/08 14:02:00;;;;;;;;;;;12.90;55.20;;;;;;5164829;27;19983;-70
2022/02/08 14:12:32;;;;;;;;;;;12.90;55.30;;;;;;5164879;27;19918;-69
2022/02/08 14:25:32;;;;;;;;;;;12.90;55.30;;;;;;5131956;27;19970;-69
2022/02/08 15:08:52;;;;;;;;;;;12.80;55.50;;;;;;5163807;27;19948;-69
2022/02/08 15:11:18;;;;;;;;;;;12.80;55.50;;;;;;5163463;27;19915;-69
2022/02/08 15:13:47;;;;;;;;;;;12.80;55.60;;;;;;5163446;27;20115;-70
2022/02/08 15:19:07;;;;;;;;;;;12.80;55.60;;;;;;5144671;27;19903;-69
2022/02/08 15:21:36;;;;;;;;;;;12.80;55.60;;;;;;5163288;27;19918;-69
2022/02/08 15:24:02;;;;;;;;;;;12.80;55.60;;;;;;5163033;27;19985;-70
2022/02/08 15:26:28;;;;;;;;;;;12.80;55.60;;;;;;5144697;27;19910;-70
2022/02/08 15:28:54;;;;;;;;;;;12.80;55.40;;;;;;5163201;27;19926;-70
2022/02/08 15:31:20;;;;;;;;;;;12.80;55.50;;;;;;5163010;27;19911;-69
2022/02/08 15:33:46;;;;;;;;;;;12.80;55.60;;;;;;5162996;27;19951;-70
2022/02/08 15:36:15;;;;;;;;;;;12.80;55.50;;;;;;5162878;27;20093;-70
2022/02/08 15:38:47;;;;;;;;;;;12.80;55.50;;;;;;5162940;27;20214;-70
2022/02/08 15:41:13;;;;;;;;;;;12.80;55.50;;;;;;5162978;27;19903;-70
2022/02/08 15:43:39;;;;;;;;;;;12.80;55.50;;;;;;5162663;27;19922;-70
2022/02/08 15:46:13;;;;;;;;;;;12.70;55.50;;;;;;5162775;27;20100;-70
2022/02/08 15:48:39;;;;;;;;;;;12.70;55.60;;;;;;5162742;27;19915;-69
2022/02/08 15:51:31;;;;;;;;;;;12.70;55.60;;;;;;5162647;27;19926;-70
2022/02/08 16:07:05;;;;;;;;;;;12.70;55.40;;;;;;5129922;27;20752;-70
2022/02/08 16:12:26;;;;;;;;;;;12.80;55.50;;;;;;5162517;27;19903;-70
2022/02/08 16:57:10;;;;;;;;;;;12.70;55.50;;;;;;5161631;27;19921;-70
2022/02/08 16:59:37;;;;;;;;;;;12.80;55.50;;;;;;5161603;27;19910;-70
2022/02/08 17:02:06;;;;;;;;;;;12.80;55.40;;;;;;5161488;27;19911;-70
2022/02/08 17:04:32;;;;;;;;;;;12.80;55.40;;;;;;5161410;27;20124;-70
2022/02/08 17:06:58;;;;;;;;;;;12.70;55.40;;;;;;5142928;27;20437;-70
2022/02/08 17:12:05;;;;;;;;;;;12.70;55.40;;;;;;5161765;27;20184;-69
2022/02/08 17:19:49;;;;;;;;;;;12.70;55.30;;;;;;5161668;27;19907;-69
2022/02/08 17:46:25;;;;;;;;;;;12.70;55.40;;;;;;5165057;27;19944;-70
2022/02/08 17:48:51;;;;;;;;;;;12.70;55.40;;;;;;5164977;27;19930;-70
2022/02/08 17:51:16;;;;;;;;;;;12.70;55.30;;;;;;5164948;27;19918;-70
2022/02/08 17:53:42;;;;;;;;;;;12.70;55.30;;;;;;5164938;27;20278;-69
2022/02/08 17:56:08;;;;;;;;;;;12.70;55.30;;;;;;5164922;27;19911;-70
2022/02/08 17:58:35;;;;;;;;;;;12.70;55.30;;;;;;5164870;27;19982;-71
2022/02/08 18:01:01;;;;;;;;;;;12.70;55.20;;;;;;5164775;27;19924;-70
2022/02/08 18:03:27;;;;;;;;;;;12.70;55.20;;;;;;5164615;27;19915;-70
2022/02/08 18:05:52;;;;;;;;;;;12.70;55.20;;;;;;5164506;27;19922;-71
2022/02/08 18:08:21;;;;;;;;;;;12.70;55.10;;;;;;5164595;27;19978;-70
2022/02/08 18:10:55;;;;;;;;;;;12.70;55.20;;;;;;5146415;27;19919;-70
2022/02/08 18:13:21;;;;;;;;;;;12.70;55.30;;;;;;5164667;27;19915;-70
2022/02/08 18:15:47;;;;;;;;;;;12.70;55.40;;;;;;5164524;27;20088;-69
2022/02/08 18:18:25;;;;;;;;;;;12.70;55.40;;;;;;5164419;27;19924;-69
2022/02/08 18:21:07;;;;;;;;;;;12.70;55.40;;;;;;5164417;27;19903;-69
2022/02/08 18:50:16;;;;;;;;;;;12.70;55.40;;;;;;5164502;27;20187;-70
2022/02/08 19:22:04;;;;;;;;;;;12.70;55.20;;;;;;5163443;27;20195;-70
2022/02/08 19:24:30;;;;;;;;;;;12.70;55.20;;;;;;5163046;27;19911;-70
2022/02/08 19:26:58;;;;;;;;;;;12.70;55.20;;;;;;5163125;27;19903;-71
2022/02/08 19:29:26;;;;;;;;;;;12.70;55.10;;;;;;5163096;27;19915;-70
2022/02/08 19:31:52;;;;;;;;;;;12.70;55.20;;;;;;5163095;27;19911;-69
2022/02/08 19:34:18;;;;;;;;;;;12.70;55.20;;;;;;5162952;27;19911;-71
2022/02/08 19:36:45;;;;;;;;;;;12.70;55.30;;;;;;5163231;27;20145;-70
2022/02/08 19:39:11;;;;;;;;;;;12.70;55.30;;;;;;5162788;27;19909;-70
2022/02/08 19:41:37;;;;;;;;;;;12.70;55.30;;;;;;5162844;27;19911;-69
2022/02/08 19:44:03;;;;;;;;;;;12.70;55.30;;;;;;5162776;27;20321;-69
2022/02/08 19:46:29;;;;;;;;;;;12.70;55.30;;;;;;5162513;27;19911;-69
2022/02/08 19:48:55;;;;;;;;;;;12.70;55.30;;;;;;5162659;27;19946;-70
2022/02/08 19:51:21;;;;;;;;;;;12.70;55.20;;;;;;5162464;27;19903;-70
2022/02/08 19:53:48;;;;;;;;;;;12.70;55.10;;;;;;5162545;27;19932;-70
2022/02/08 19:56:32;;;;;;;;;;;12.70;55.20;;;;;;5162578;27;20150;-70
2022/02/08 19:58:59;;;;;;;;;;;12.70;55.20;;;;;;5162442;27;19970;-70
2022/02/08 20:01:29;;;;;;;;;;;12.70;55.30;;;;;;5162384;27;19946;-70
2022/02/08 20:04:05;;;;;;;;;;;12.70;55.20;;;;;;5161892;27;19915;-70
2022/02/08 20:06:33;;;;;;;;;;;12.70;55.20;;;;;;5162321;27;19915;-70
2022/02/08 20:08:59;;;;;;;;;;;12.70;55.20;;;;;;5162300;27;19911;-70
2022/02/08 20:11:25;;;;;;;;;;;12.70;55.20;;;;;;5162236;27;19918;-70
2022/02/08 20:13:52;;;;;;;;;;;12.70;55.30;;;;;;5162204;27;19944;-70
2022/02/08 20:16:18;;;;;;;;;;;12.70;55.30;;;;;;5162199;27;19910;-70
2022/02/08 20:18:46;;;;;;;;;;;12.70;55.30;;;;;;5162128;27;20114;-70
2022/02/08 20:21:12;;;;;;;;;;;12.70;55.30;;;;;;5162107;27;19946;-70
2022/02/08 20:23:38;;;;;;;;;;;12.70;55.30;;;;;;5162027;27;20035;-70
2022/02/08 20:26:05;;;;;;;;;;;12.70;55.20;;;;;;5162091;27;19917;-71
2022/02/08 20:28:50;;;;;;;;;;;12.70;55.20;;;;;;5162028;27;19907;-70
2022/02/08 20:31:17;;;;;;;;;;;12.70;55.10;;;;;;5161755;27;19911;-70
2022/02/08 20:33:43;;;;;;;;;;;12.70;55.00;;;;;;5161951;27;19927;-70
2022/02/08 20:36:09;;;;;;;;;;;12.70;55.00;;;;;;5161868;27;19911;-70
2022/02/08 20:38:34;;;;;;;;;;;12.70;55.10;;;;;;5161897;27;20002;-70
2022/02/08 20:41:00;;;;;;;;;;;12.70;55.10;;;;;;5161812;27;19911;-70
2022/02/08 20:43:31;;;;;;;;;;;12.70;55.10;;;;;;5143133;27;19914;-70
2022/02/08 20:45:58;;;;;;;;;;;12.70;55.10;;;;;;5161799;27;19911;-70
2022/02/08 20:48:25;;;;;;;;;;;12.70;55.20;;;;;;5143223;27;19952;-69
2022/02/08 20:50:55;;;;;;;;;;;12.70;55.20;;;;;;5161701;27;19907;-70
2022/02/08 20:53:36;;;;;;;;;;;12.70;55.20;;;;;;5161652;27;19924;-70
2022/02/08 20:56:37;;;;;;;;;;;12.70;55.30;;;;;;5161677;27;20156;-70
2022/02/08 21:01:25;;;;;;;;;;;12.60;55.40;;;;;;5161652;27;19956;-70
2022/02/08 21:03:52;;;;;;;;;;;12.60;56.00;;;;;;5161491;27;20195;-69
2022/02/08 21:06:21;;;;;;;;;;;12.70;55.30;;;;;;5161376;27;19945;-69
2022/02/08 21:08:47;;;;;;;;;;;12.70;55.20;;;;;;5161540;27;19918;-70
2022/02/08 21:11:13;;;;;;;;;;;12.70;55.10;;;;;;5161569;27;19942;-70
2022/02/08 21:14:21;;;;;;;;;;;12.70;55.10;;;;;;5161507;27;20200;-70
2022/02/08 21:16:30;;;;;;;;;;;12.70;55.10;;;;;;5155254;27;20184;-71
2022/02/08 21:18:57;;;;;;;;;;;12.70;55.10;;;;;;5165633;27;19906;-70
2022/02/08 21:21:23;;;;;;;;;;;12.70;55.10;;;;;;5165677;27;20182;-70
2022/02/08 21:23:51;;;;;;;;;;;12.70;55.20;;;;;;5165441;27;19914;-70
2022/02/08 21:26:22;;;;;;;;;;;12.70;55.20;;;;;;5165433;27;19931;-68
2022/02/08 21:47:53;;;;;;;;;;;12.70;55.20;;;;;;5165119;27;19910;-70
2022/02/08 21:52:48;;;;;;;;;;;12.70;55.30;;;;;;5165252;27;19915;-70
2022/02/08 21:55:14;;;;;;;;;;;12.70;55.20;;;;;;5164901;27;19915;-70
2022/02/08 21:57:51;;;;;;;;;;;12.60;55.30;;;;;;5165160;27;19910;-69
2022/02/08 22:00:19;;;;;;;;;;;12.60;55.20;;;;;;5165101;27;19939;-72
2022/02/08 22:02:44;;;;;;;;;;;12.70;55.20;;;;;;5164751;27;19959;-69
2022/02/08 22:05:10;;;;;;;;;;;12.60;55.20;;;;;;5164630;27;20111;-69
2022/02/08 22:07:36;;;;;;;;;;;12.70;55.20;;;;;;5164787;27;19907;-69
2022/02/08 22:10:21;;;;;;;;;;;12.70;55.30;;;;;;5164789;27;19918;-69
2022/02/08 22:16:02;;;;;;;;;;;12.60;55.30;;;;;;5164598;27;20416;-70
2022/02/08 22:24:22;;;;;;;;;;;12.70;55.10;;;;;;5079937;28;20208;-70
2022/02/08 22:27:09;;;;;;;;;;;12.70;55.00;;;;;;5135981;27;20107;-68
2022/02/08 22:32:31;;;;;;;;;;;12.70;55.00;;;;;;5150609;27;19907;-69
2022/02/08 22:35:35;;;;;;;;;;;12.70;55.10;;;;;;5164186;27;19979;-70
2022/02/08 22:38:38;;;;;;;;;;;12.70;55.10;;;;;;5160900;27;20362;-70
2022/02/08 22:40:36;;;;;;;;;;;12.70;55.10;;;;;;5148056;27;19918;-70
2022/02/08 22:43:13;;;;;;;;;;;12.70;55.10;;;;;;5163981;27;19915;-69
2022/02/08 22:45:39;;;;;;;;;;;12.60;55.10;;;;;;5164015;27;19915;-70
2022/02/08 22:48:09;;;;;;;;;;;12.60;55.20;;;;;;5163877;27;19911;-69
2022/02/08 22:50:36;;;;;;;;;;;12.60;55.20;;;;;;5164025;27;19922;-70
2022/02/08 22:53:02;;;;;;;;;;;12.60;55.30;;;;;;5163893;27;19915;-70
2022/02/08 22:55:30;;;;;;;;;;;12.60;55.30;;;;;;5163768;27;19990;-70
2022/02/08 22:58:06;;;;;;;;;;;12.60;55.30;;;;;;5163708;27;20191;-70
2022/02/08 23:00:32;;;;;;;;;;;12.70;55.20;;;;;;5163781;27;19918;-70
2022/02/08 23:02:58;;;;;;;;;;;12.70;55.10;;;;;;5163563;27;19907;-70
2022/02/08 23:05:23;;;;;;;;;;;12.70;55.10;;;;;;5163501;27;19964;-70
2022/02/08 23:07:50;;;;;;;;;;;12.70;55.00;;;;;;5144902;27;19904;-69
2022/02/08 23:10:20;;;;;;;;;;;12.70;55.10;;;;;;5163457;27;19911;-70